sensor_id;sensor_type;location;lat;lon;timestamp;temperature;humidity
23618;DHT22;18207;32.078;34.818;2023-02-15T00:00:21;19.40;35.20
23618;DHT22;18207;32.078;34.818;2023-02-15T00:02:52;19.40;35.30
23618;DHT22;18207;32.078;34.818;2023-02-15T00:05:24;19.40;35.40
23618;DHT22;18207;32.078;34.818;2023-02-15T00:07:54;19.30;35.30
23618;DHT22;18207;32.078;34.818;2023-02-15T00:10:24;19.40;35.40
23618;DHT22;18207;32.078;34.818;2023-02-15T00:12:54;19.30;35.40
23618;DHT22;18207;32.078;34.818;2023-02-15T00:15:24;19.30;35.50
23618;DHT22;18207;32.078;34.818;2023-02-15T00:17:56;19.30;35.60
23618;DHT22;18207;32.078;34.818;2023-02-15T00:20:28;19.30;35.60
23618;DHT22;18207;32.078;34.818;2023-02-15T00:22:59;19.30;35.80
23618;DHT22;18207;32.078;34.818;2023-02-15T00:25:29;19.30;35.80
23618;DHT22;18207;32.078;34.818;2023-02-15T00:28:00;19.30;35.80
23618;DHT22;18207;32.078;34.818;2023-02-15T00:30:31;19.30;35.80
23618;DHT22;18207;32.078;34.818;2023-02-15T00:33:01;19.30;35.90
23618;DHT22;18207;32.078;34.818;2023-02-15T00:35:33;19.30;36.00
23618;DHT22;18207;32.078;34.818;2023-02-15T00:38:03;19.30;36.00
23618;DHT22;18207;32.078;34.818;2023-02-15T00:40:34;19.30;36.70
23618;DHT22;18207;32.078;34.818;2023-02-15T00:43:05;19.30;36.10
23618;DHT22;18207;32.078;34.818;2023-02-15T00:45:35;19.30;36.10
23618;DHT22;18207;32.078;34.818;2023-02-15T00:48:07;19.30;36.20
23618;DHT22;18207;32.078;34.818;2023-02-15T00:50:38;19.30;36.20
23618;DHT22;18207;32.078;34.818;2023-02-15T00:53:08;19.30;36.30
23618;DHT22;18207;32.078;34.818;2023-02-15T00:55:38;19.20;36.10
23618;DHT22;18207;32.078;34.818;2023-02-15T00:58:09;19.20;36.00
23618;DHT22;18207;32.078;34.818;2023-02-15T01:00:42;19.20;36.00
23618;DHT22;18207;32.078;34.818;2023-02-15T01:03:14;19.20;36.00
23618;DHT22;18207;32.078;34.818;2023-02-15T01:05:49;19.10;35.90
23618;DHT22;18207;32.078;34.818;2023-02-15T01:08:21;19.10;36.00
23618;DHT22;18207;32.078;34.818;2023-02-15T01:10:52;19.10;36.10
23618;DHT22;18207;32.078;34.818;2023-02-15T01:13:22;19.10;36.10
23618;DHT22;18207;32.078;34.818;2023-02-15T01:15:54;19.00;36.20
23618;DHT22;18207;32.078;34.818;2023-02-15T01:18:24;19.00;36.20
23618;DHT22;18207;32.078;34.818;2023-02-15T01:20:57;19.00;36.30
23618;DHT22;18207;32.078;34.818;2023-02-15T01:23:27;19.00;36.30
23618;DHT22;18207;32.078;34.818;2023-02-15T01:26:01;19.00;36.40
23618;DHT22;18207;32.078;34.818;2023-02-15T01:28:32;19.00;36.40
23618;DHT22;18207;32.078;34.818;2023-02-15T01:31:06;19.00;36.40
23618;DHT22;18207;32.078;34.818;2023-02-15T01:33:37;19.00;36.50
23618;DHT22;18207;32.078;34.818;2023-02-15T01:36:09;19.00;36.50
23618;DHT22;18207;32.078;34.818;2023-02-15T01:38:45;19.00;37.20
23618;DHT22;18207;32.078;34.818;2023-02-15T01:41:15;19.00;36.60
23618;DHT22;18207;32.078;34.818;2023-02-15T01:43:55;19.00;36.60
23618;DHT22;18207;32.078;34.818;2023-02-15T01:46:30;18.90;36.60
23618;DHT22;18207;32.078;34.818;2023-02-15T01:49:10;18.90;36.60
23618;DHT22;18207;32.078;34.818;2023-02-15T01:51:46;18.90;36.60
23618;DHT22;18207;32.078;34.818;2023-02-15T01:54:24;18.90;36.60
23618;DHT22;18207;32.078;34.818;2023-02-15T01:57:01;18.90;36.60
23618;DHT22;18207;32.078;34.818;2023-02-15T01:59:35;18.80;36.50
23618;DHT22;18207;32.078;34.818;2023-02-15T02:02:10;18.80;36.50
23618;DHT22;18207;32.078;34.818;2023-02-15T02:04:47;18.80;36.50
23618;DHT22;18207;32.078;34.818;2023-02-15T02:07:22;18.80;36.40
23618;DHT22;18207;32.078;34.818;2023-02-15T02:09:55;18.80;36.50
23618;DHT22;18207;32.078;34.818;2023-02-15T02:12:25;18.80;36.50
23618;DHT22;18207;32.078;34.818;2023-02-15T02:14:56;18.80;36.50
23618;DHT22;18207;32.078;34.818;2023-02-15T02:17:36;18.80;36.50
23618;DHT22;18207;32.078;34.818;2023-02-15T02:20:31;18.80;36.60
23618;DHT22;18207;32.078;34.818;2023-02-15T02:27:15;18.70;36.70
23618;DHT22;18207;32.078;34.818;2023-02-15T02:36:23;18.70;36.50
23618;DHT22;18207;32.078;34.818;2023-02-15T02:39:09;18.70;36.50
23618;DHT22;18207;32.078;34.818;2023-02-15T02:41:55;18.70;36.50
23618;DHT22;18207;32.078;34.818;2023-02-15T02:44:35;18.70;36.60
23618;DHT22;18207;32.078;34.818;2023-02-15T02:47:15;18.70;36.60
23618;DHT22;18207;32.078;34.818;2023-02-15T02:49:59;18.70;36.60
23618;DHT22;18207;32.078;34.818;2023-02-15T02:52:39;18.70;36.70
23618;DHT22;18207;32.078;34.818;2023-02-15T02:55:15;18.70;36.60
23618;DHT22;18207;32.078;34.818;2023-02-15T02:57:54;18.60;36.50
23618;DHT22;18207;32.078;34.818;2023-02-15T03:00:31;18.60;36.60
23618;DHT22;18207;32.078;34.818;2023-02-15T03:03:08;18.60;36.60
23618;DHT22;18207;32.078;34.818;2023-02-15T03:05:45;18.60;36.70
23618;DHT22;18207;32.078;34.818;2023-02-15T03:08:23;18.60;36.60
23618;DHT22;18207;32.078;34.818;2023-02-15T03:11:00;18.60;36.60
23618;DHT22;18207;32.078;34.818;2023-02-15T03:13:33;18.60;36.60
23618;DHT22;18207;32.078;34.818;2023-02-15T03:16:05;18.60;36.60
23618;DHT22;18207;32.078;34.818;2023-02-15T03:19:00;18.60;36.70
23618;DHT22;18207;32.078;34.818;2023-02-15T03:21:40;18.50;36.50
23618;DHT22;18207;32.078;34.818;2023-02-15T03:24:21;18.50;36.50
23618;DHT22;18207;32.078;34.818;2023-02-15T03:26:54;18.50;36.50
23618;DHT22;18207;32.078;34.818;2023-02-15T03:29:28;18.50;36.50
23618;DHT22;18207;32.078;34.818;2023-02-15T03:32:01;18.40;36.50
23618;DHT22;18207;32.078;34.818;2023-02-15T03:34:36;18.50;36.60
23618;DHT22;18207;32.078;34.818;2023-02-15T03:37:13;18.40;36.60
23618;DHT22;18207;32.078;34.818;2023-02-15T03:39:54;18.40;36.60
23618;DHT22;18207;32.078;34.818;2023-02-15T03:42:50;18.40;36.60
23618;DHT22;18207;32.078;34.818;2023-02-15T03:45:29;18.40;36.60
23618;DHT22;18207;32.078;34.818;2023-02-15T03:48:04;18.40;36.70
23618;DHT22;18207;32.078;34.818;2023-02-15T03:50:37;18.40;36.60
23618;DHT22;18207;32.078;34.818;2023-02-15T03:53:27;18.40;36.80
23618;DHT22;18207;32.078;34.818;2023-02-15T03:55:58;18.40;36.70
23618;DHT22;18207;32.078;34.818;2023-02-15T03:58:28;18.40;36.70
23618;DHT22;18207;32.078;34.818;2023-02-15T04:01:22;18.40;36.70
23618;DHT22;18207;32.078;34.818;2023-02-15T04:04:31;18.40;36.70
23618;DHT22;18207;32.078;34.818;2023-02-15T04:07:05;18.40;36.60
23618;DHT22;18207;32.078;34.818;2023-02-15T04:09:38;18.40;36.80
23618;DHT22;18207;32.078;34.818;2023-02-15T04:12:25;18.40;36.80
23618;DHT22;18207;32.078;34.818;2023-02-15T04:14:56;18.40;36.80
23618;DHT22;18207;32.078;34.818;2023-02-15T04:17:43;18.30;36.70
23618;DHT22;18207;32.078;34.818;2023-02-15T04:20:13;18.40;36.80
23618;DHT22;18207;32.078;34.818;2023-02-15T04:23:00;18.40;37.00
23618;DHT22;18207;32.078;34.818;2023-02-15T04:25:49;18.30;36.90
23618;DHT22;18207;32.078;34.818;2023-02-15T04:28:19;18.30;36.90
23618;DHT22;18207;32.078;34.818;2023-02-15T04:30:50;18.30;36.90
23618;DHT22;18207;32.078;34.818;2023-02-15T04:33:20;18.30;36.80
23618;DHT22;18207;32.078;34.818;2023-02-15T04:35:50;18.30;36.80
23618;DHT22;18207;32.078;34.818;2023-02-15T04:38:21;18.30;36.90
23618;DHT22;18207;32.078;34.818;2023-02-15T04:40:55;18.30;36.90
23618;DHT22;18207;32.078;34.818;2023-02-15T04:43:27;18.30;37.00
23618;DHT22;18207;32.078;34.818;2023-02-15T04:45:57;18.30;37.60
23618;DHT22;18207;32.078;34.818;2023-02-15T04:48:28;18.30;37.00
23618;DHT22;18207;32.078;34.818;2023-02-15T04:50:58;18.30;37.00
23618;DHT22;18207;32.078;34.818;2023-02-15T04:53:28;18.30;37.00
23618;DHT22;18207;32.078;34.818;2023-02-15T04:56:00;18.30;37.00
23618;DHT22;18207;32.078;34.818;2023-02-15T04:58:30;18.30;37.00
23618;DHT22;18207;32.078;34.818;2023-02-15T05:01:01;18.30;37.00
23618;DHT22;18207;32.078;34.818;2023-02-15T05:03:30;18.30;37.00
23618;DHT22;18207;32.078;34.818;2023-02-15T05:06:01;18.30;37.00
23618;DHT22;18207;32.078;34.818;2023-02-15T05:08:31;18.30;37.00
23618;DHT22;18207;32.078;34.818;2023-02-15T05:11:04;18.20;36.90
23618;DHT22;18207;32.078;34.818;2023-02-15T05:13:34;18.20;37.00
23618;DHT22;18207;32.078;34.818;2023-02-15T05:16:04;18.20;36.90
23618;DHT22;18207;32.078;34.818;2023-02-15T05:18:34;18.20;37.00
23618;DHT22;18207;32.078;34.818;2023-02-15T05:21:04;18.20;37.00
23618;DHT22;18207;32.078;34.818;2023-02-15T05:23:35;18.20;37.10
23618;DHT22;18207;32.078;34.818;2023-02-15T05:26:09;18.20;37.20
23618;DHT22;18207;32.078;34.818;2023-02-15T05:28:57;18.20;37.20
23618;DHT22;18207;32.078;34.818;2023-02-15T05:31:27;18.20;37.40
23618;DHT22;18207;32.078;34.818;2023-02-15T05:33:57;18.30;37.60
23618;DHT22;18207;32.078;34.818;2023-02-15T05:36:28;18.40;37.90
23618;DHT22;18207;32.078;34.818;2023-02-15T05:38:58;18.50;38.20
23618;DHT22;18207;32.078;34.818;2023-02-15T05:41:30;18.70;38.40
23618;DHT22;18207;32.078;34.818;2023-02-15T05:44:01;18.80;38.50
23618;DHT22;18207;32.078;34.818;2023-02-15T05:46:31;19.10;38.70
23618;DHT22;18207;32.078;34.818;2023-02-15T05:49:01;19.30;38.80
23618;DHT22;18207;32.078;34.818;2023-02-15T05:51:32;19.50;38.70
23618;DHT22;18207;32.078;34.818;2023-02-15T05:54:02;19.60;38.50
23618;DHT22;18207;32.078;34.818;2023-02-15T05:56:34;19.80;38.40
23618;DHT22;18207;32.078;34.818;2023-02-15T05:59:04;19.90;38.00
23618;DHT22;18207;32.078;34.818;2023-02-15T06:01:35;20.00;37.70
23618;DHT22;18207;32.078;34.818;2023-02-15T06:04:05;20.00;37.40
23618;DHT22;18207;32.078;34.818;2023-02-15T06:06:36;20.00;37.20
23618;DHT22;18207;32.078;34.818;2023-02-15T06:09:06;20.00;37.10
23618;DHT22;18207;32.078;34.818;2023-02-15T06:11:38;19.90;37.00
23618;DHT22;18207;32.078;34.818;2023-02-15T06:14:08;19.90;37.00
23618;DHT22;18207;32.078;34.818;2023-02-15T06:16:39;19.80;36.90
23618;DHT22;18207;32.078;34.818;2023-02-15T06:19:09;19.70;36.90
23618;DHT22;18207;32.078;34.818;2023-02-15T06:21:39;19.60;36.90
23618;DHT22;18207;32.078;34.818;2023-02-15T06:24:09;19.60;37.10
23618;DHT22;18207;32.078;34.818;2023-02-15T06:26:42;19.50;37.20
23618;DHT22;18207;32.078;34.818;2023-02-15T06:29:12;19.50;37.40
23618;DHT22;18207;32.078;34.818;2023-02-15T06:31:43;19.50;37.40
23618;DHT22;18207;32.078;34.818;2023-02-15T06:34:13;19.50;37.60
23618;DHT22;18207;32.078;34.818;2023-02-15T06:36:44;19.50;37.60
23618;DHT22;18207;32.078;34.818;2023-02-15T06:39:14;19.50;37.60
23618;DHT22;18207;32.078;34.818;2023-02-15T06:41:46;19.50;37.60
23618;DHT22;18207;32.078;34.818;2023-02-15T06:44:17;19.50;37.70
23618;DHT22;18207;32.078;34.818;2023-02-15T06:46:47;19.50;37.70
23618;DHT22;18207;32.078;34.818;2023-02-15T06:49:17;19.50;37.60
23618;DHT22;18207;32.078;34.818;2023-02-15T06:51:48;19.50;37.60
23618;DHT22;18207;32.078;34.818;2023-02-15T06:54:17;19.50;37.50
23618;DHT22;18207;32.078;34.818;2023-02-15T06:56:50;19.50;38.10
23618;DHT22;18207;32.078;34.818;2023-02-15T06:59:20;19.40;37.60
23618;DHT22;18207;32.078;34.818;2023-02-15T07:01:50;19.50;38.00
23618;DHT22;18207;32.078;34.818;2023-02-15T07:04:20;19.60;38.30
23618;DHT22;18207;32.078;34.818;2023-02-15T07:06:50;19.70;38.60
23618;DHT22;18207;32.078;34.818;2023-02-15T07:09:20;19.90;38.90
23618;DHT22;18207;32.078;34.818;2023-02-15T07:11:53;20.10;39.00
23618;DHT22;18207;32.078;34.818;2023-02-15T07:14:40;20.30;38.90
23618;DHT22;18207;32.078;34.818;2023-02-15T07:17:10;20.50;38.80
23618;DHT22;18207;32.078;34.818;2023-02-15T07:20:00;20.70;38.80
23618;DHT22;18207;32.078;34.818;2023-02-15T07:22:30;20.90;38.70
23618;DHT22;18207;32.078;34.818;2023-02-15T07:25:03;21.00;38.50
23618;DHT22;18207;32.078;34.818;2023-02-15T07:27:36;21.20;38.50
23618;DHT22;18207;32.078;34.818;2023-02-15T07:30:07;21.40;38.50
23618;DHT22;18207;32.078;34.818;2023-02-15T07:32:40;21.60;38.40
23618;DHT22;18207;32.078;34.818;2023-02-15T07:35:23;21.70;38.40
23618;DHT22;18207;32.078;34.818;2023-02-15T07:37:54;21.90;38.40
23618;DHT22;18207;32.078;34.818;2023-02-15T07:40:24;22.10;38.30
23618;DHT22;18207;32.078;34.818;2023-02-15T07:42:58;22.30;38.20
23618;DHT22;18207;32.078;34.818;2023-02-15T07:45:28;22.40;37.90
23618;DHT22;18207;32.078;34.818;2023-02-15T07:48:00;22.60;37.90
23618;DHT22;18207;32.078;34.818;2023-02-15T07:50:32;22.70;37.70
23618;DHT22;18207;32.078;34.818;2023-02-15T07:53:02;22.80;37.60
23618;DHT22;18207;32.078;34.818;2023-02-15T07:55:34;22.90;37.50
23618;DHT22;18207;32.078;34.818;2023-02-15T07:58:05;23.00;37.50
23618;DHT22;18207;32.078;34.818;2023-02-15T08:00:35;23.10;37.40
23618;DHT22;18207;32.078;34.818;2023-02-15T08:03:24;23.20;37.30
23618;DHT22;18207;32.078;34.818;2023-02-15T08:05:56;23.40;37.30
23618;DHT22;18207;32.078;34.818;2023-02-15T08:08:27;23.50;37.00
23618;DHT22;18207;32.078;34.818;2023-02-15T08:11:02;23.60;37.00
23618;DHT22;18207;32.078;34.818;2023-02-15T08:13:55;23.70;36.70
23618;DHT22;18207;32.078;34.818;2023-02-15T08:16:29;23.70;36.20
23618;DHT22;18207;32.078;34.818;2023-02-15T08:19:03;23.70;36.00
23618;DHT22;18207;32.078;34.818;2023-02-15T08:21:34;23.60;35.90
23618;DHT22;18207;32.078;34.818;2023-02-15T08:24:07;23.60;35.90
23618;DHT22;18207;32.078;34.818;2023-02-15T08:26:39;23.50;35.70
23618;DHT22;18207;32.078;34.818;2023-02-15T08:29:14;23.50;35.40
23618;DHT22;18207;32.078;34.818;2023-02-15T08:31:46;23.40;35.30
23618;DHT22;18207;32.078;34.818;2023-02-15T08:34:19;23.30;35.20
23618;DHT22;18207;32.078;34.818;2023-02-15T08:36:49;23.20;35.20
23618;DHT22;18207;32.078;34.818;2023-02-15T08:39:20;23.20;35.30
23618;DHT22;18207;32.078;34.818;2023-02-15T08:41:50;23.10;35.40
23618;DHT22;18207;32.078;34.818;2023-02-15T08:44:22;23.10;36.00
23618;DHT22;18207;32.078;34.818;2023-02-15T08:46:53;23.00;35.20
23618;DHT22;18207;32.078;34.818;2023-02-15T08:49:26;23.00;35.20
23618;DHT22;18207;32.078;34.818;2023-02-15T08:51:56;23.00;35.20
23618;DHT22;18207;32.078;34.818;2023-02-15T08:54:26;22.90;35.10
23618;DHT22;18207;32.078;34.818;2023-02-15T08:56:56;22.90;35.10
23618;DHT22;18207;32.078;34.818;2023-02-15T08:59:28;22.80;34.90
23618;DHT22;18207;32.078;34.818;2023-02-15T09:01:58;22.80;35.00
23618;DHT22;18207;32.078;34.818;2023-02-15T09:04:30;22.70;35.00
23618;DHT22;18207;32.078;34.818;2023-02-15T09:07:01;22.70;35.30
23618;DHT22;18207;32.078;34.818;2023-02-15T09:09:31;22.70;35.40
23618;DHT22;18207;32.078;34.818;2023-02-15T09:12:02;22.70;35.50
23618;DHT22;18207;32.078;34.818;2023-02-15T09:14:35;22.70;35.60
23618;DHT22;18207;32.078;34.818;2023-02-15T09:17:05;22.80;35.50
23618;DHT22;18207;32.078;34.818;2023-02-15T09:19:35;22.70;35.30
23618;DHT22;18207;32.078;34.818;2023-02-15T09:22:06;22.80;35.30
23618;DHT22;18207;32.078;34.818;2023-02-15T09:24:36;22.70;35.20
23618;DHT22;18207;32.078;34.818;2023-02-15T09:27:06;22.80;35.20
23618;DHT22;18207;32.078;34.818;2023-02-15T09:29:39;22.80;35.20
23618;DHT22;18207;32.078;34.818;2023-02-15T09:32:09;22.80;35.00
23618;DHT22;18207;32.078;34.818;2023-02-15T09:34:45;22.80;34.90
23618;DHT22;18207;32.078;34.818;2023-02-15T09:37:15;22.80;34.90
23618;DHT22;18207;32.078;34.818;2023-02-15T09:39:45;22.80;34.90
23618;DHT22;18207;32.078;34.818;2023-02-15T09:42:32;22.80;34.90
23618;DHT22;18207;32.078;34.818;2023-02-15T09:45:36;22.80;34.80
23618;DHT22;18207;32.078;34.818;2023-02-15T09:48:28;22.80;34.90
23618;DHT22;18207;32.078;34.818;2023-02-15T09:51:26;22.90;34.90
23618;DHT22;18207;32.078;34.818;2023-02-15T09:54:36;22.90;35.30
23618;DHT22;18207;32.078;34.818;2023-02-15T09:57:20;22.90;34.60
23618;DHT22;18207;32.078;34.818;2023-02-15T10:00:10;22.90;34.60
23618;DHT22;18207;32.078;34.818;2023-02-15T10:03:04;22.90;34.50
23618;DHT22;18207;32.078;34.818;2023-02-15T10:05:58;23.00;34.60
23618;DHT22;18207;32.078;34.818;2023-02-15T10:12:12;23.00;34.40
23618;DHT22;18207;32.078;34.818;2023-02-15T10:15:16;23.00;34.40
23618;DHT22;18207;32.078;34.818;2023-02-15T10:21:33;23.00;34.30
23618;DHT22;18207;32.078;34.818;2023-02-15T10:24:26;23.10;34.30
23618;DHT22;18207;32.078;34.818;2023-02-15T10:27:20;23.00;34.20
23618;DHT22;18207;32.078;34.818;2023-02-15T10:29:58;23.00;34.20
23618;DHT22;18207;32.078;34.818;2023-02-15T10:32:44;23.00;34.20
23618;DHT22;18207;32.078;34.818;2023-02-15T10:35:33;23.00;34.20
23618;DHT22;18207;32.078;34.818;2023-02-15T10:38:23;23.00;34.20
23618;DHT22;18207;32.078;34.818;2023-02-15T10:41:09;22.90;34.10
23618;DHT22;18207;32.078;34.818;2023-02-15T10:44:11;22.90;34.10
23618;DHT22;18207;32.078;34.818;2023-02-15T10:47:08;22.90;34.10
23618;DHT22;18207;32.078;34.818;2023-02-15T10:50:13;22.90;34.10
23618;DHT22;18207;32.078;34.818;2023-02-15T10:53:05;22.80;34.10
23618;DHT22;18207;32.078;34.818;2023-02-15T10:55:52;22.80;34.10
23618;DHT22;18207;32.078;34.818;2023-02-15T10:58:40;22.80;34.10
23618;DHT22;18207;32.078;34.818;2023-02-15T11:01:25;22.70;34.10
23618;DHT22;18207;32.078;34.818;2023-02-15T11:04:24;22.60;34.10
23618;DHT22;18207;32.078;34.818;2023-02-15T11:07:15;22.60;34.20
23618;DHT22;18207;32.078;34.818;2023-02-15T11:09:55;22.60;34.30
23618;DHT22;18207;32.078;34.818;2023-02-15T11:12:35;22.50;34.20
23618;DHT22;18207;32.078;34.818;2023-02-15T11:15:15;22.50;34.30
23618;DHT22;18207;32.078;34.818;2023-02-15T11:17:52;22.40;34.30
23618;DHT22;18207;32.078;34.818;2023-02-15T11:20:30;22.30;34.30
23618;DHT22;18207;32.078;34.818;2023-02-15T11:23:13;22.30;34.40
23618;DHT22;18207;32.078;34.818;2023-02-15T11:25:56;22.20;34.30
23618;DHT22;18207;32.078;34.818;2023-02-15T11:28:33;22.20;34.50
23618;DHT22;18207;32.078;34.818;2023-02-15T11:31:15;22.10;34.50
23618;DHT22;18207;32.078;34.818;2023-02-15T11:33:52;22.10;34.60
23618;DHT22;18207;32.078;34.818;2023-02-15T11:36:31;22.00;34.50
23618;DHT22;18207;32.078;34.818;2023-02-15T11:39:09;21.90;34.40
23618;DHT22;18207;32.078;34.818;2023-02-15T11:41:49;21.90;34.50
23618;DHT22;18207;32.078;34.818;2023-02-15T11:44:26;21.80;34.50
23618;DHT22;18207;32.078;34.818;2023-02-15T11:47:01;21.70;34.60
23618;DHT22;18207;32.078;34.818;2023-02-15T11:49:33;21.70;34.70
23618;DHT22;18207;32.078;34.818;2023-02-15T11:52:07;21.60;34.80
23618;DHT22;18207;32.078;34.818;2023-02-15T11:54:42;21.50;34.90
23618;DHT22;18207;32.078;34.818;2023-02-15T11:57:19;21.50;34.90
23618;DHT22;18207;32.078;34.818;2023-02-15T12:00:00;21.40;35.10
23618;DHT22;18207;32.078;34.818;2023-02-15T12:02:37;21.40;35.30
23618;DHT22;18207;32.078;34.818;2023-02-15T12:05:14;21.40;35.20
23618;DHT22;18207;32.078;34.818;2023-02-15T12:07:52;21.40;35.30
23618;DHT22;18207;32.078;34.818;2023-02-15T12:10:29;21.40;35.30
23618;DHT22;18207;32.078;34.818;2023-02-15T12:13:13;21.40;35.30
23618;DHT22;18207;32.078;34.818;2023-02-15T12:15:46;21.40;35.30
23618;DHT22;18207;32.078;34.818;2023-02-15T12:18:36;21.40;35.30
23618;DHT22;18207;32.078;34.818;2023-02-15T12:21:10;21.40;35.40
23618;DHT22;18207;32.078;34.818;2023-02-15T12:23:46;21.40;35.20
23618;DHT22;18207;32.078;34.818;2023-02-15T12:26:24;21.40;35.20
23618;DHT22;18207;32.078;34.818;2023-02-15T12:28:59;21.40;35.20
23618;DHT22;18207;32.078;34.818;2023-02-15T12:31:39;21.40;35.20
23618;DHT22;18207;32.078;34.818;2023-02-15T12:34:19;21.30;35.10
23618;DHT22;18207;32.078;34.818;2023-02-15T12:36:53;21.30;35.20
23618;DHT22;18207;32.078;34.818;2023-02-15T12:39:28;21.30;35.20
23618;DHT22;18207;32.078;34.818;2023-02-15T12:42:03;21.30;35.20
23618;DHT22;18207;32.078;34.818;2023-02-15T12:44:36;21.30;35.30
23618;DHT22;18207;32.078;34.818;2023-02-15T12:47:18;21.30;35.30
23618;DHT22;18207;32.078;34.818;2023-02-15T12:50:07;21.30;35.50
23618;DHT22;18207;32.078;34.818;2023-02-15T12:52:45;21.30;35.40
23618;DHT22;18207;32.078;34.818;2023-02-15T12:55:23;21.30;35.50
23618;DHT22;18207;32.078;34.818;2023-02-15T12:58:17;21.30;35.50
23618;DHT22;18207;32.078;34.818;2023-02-15T13:01:02;21.40;35.60
23618;DHT22;18207;32.078;34.818;2023-02-15T13:03:55;21.40;35.50
23618;DHT22;18207;32.078;34.818;2023-02-15T13:06:30;21.40;35.50
23618;DHT22;18207;32.078;34.818;2023-02-15T13:09:08;21.40;35.40
23618;DHT22;18207;32.078;34.818;2023-02-15T13:11:45;21.40;35.50
23618;DHT22;18207;32.078;34.818;2023-02-15T13:14:19;21.40;35.40
23618;DHT22;18207;32.078;34.818;2023-02-15T13:16:53;21.40;35.30
23618;DHT22;18207;32.078;34.818;2023-02-15T13:19:33;21.40;35.40
23618;DHT22;18207;32.078;34.818;2023-02-15T13:22:08;21.40;35.60
23618;DHT22;18207;32.078;34.818;2023-02-15T13:24:45;21.40;35.60
23618;DHT22;18207;32.078;34.818;2023-02-15T13:27:19;21.40;35.40
23618;DHT22;18207;32.078;34.818;2023-02-15T13:29:54;21.40;35.40
23618;DHT22;18207;32.078;34.818;2023-02-15T13:32:32;21.40;35.50
23618;DHT22;18207;32.078;34.818;2023-02-15T13:35:09;21.40;35.50
23618;DHT22;18207;32.078;34.818;2023-02-15T13:38:05;21.40;35.40
23618;DHT22;18207;32.078;34.818;2023-02-15T13:40:48;21.40;35.50
23618;DHT22;18207;32.078;34.818;2023-02-15T13:43:35;21.40;35.50
23618;DHT22;18207;32.078;34.818;2023-02-15T13:46:25;21.40;35.50
23618;DHT22;18207;32.078;34.818;2023-02-15T13:49:21;21.40;35.50
23618;DHT22;18207;32.078;34.818;2023-02-15T13:52:16;21.40;35.50
23618;DHT22;18207;32.078;34.818;2023-02-15T13:54:59;21.50;35.60
23618;DHT22;18207;32.078;34.818;2023-02-15T14:01:09;21.50;35.70
23618;DHT22;18207;32.078;34.818;2023-02-15T14:04:04;21.40;35.50
23618;DHT22;18207;32.078;34.818;2023-02-15T14:07:10;21.40;35.50
23618;DHT22;18207;32.078;34.818;2023-02-15T14:10:02;21.50;35.40
23618;DHT22;18207;32.078;34.818;2023-02-15T14:12:58;21.40;35.30
23618;DHT22;18207;32.078;34.818;2023-02-15T14:15:45;21.40;35.30
23618;DHT22;18207;32.078;34.818;2023-02-15T14:18:25;21.40;35.20
23618;DHT22;18207;32.078;34.818;2023-02-15T14:21:10;21.40;35.80
23618;DHT22;18207;32.078;34.818;2023-02-15T14:24:00;21.40;35.20
23618;DHT22;18207;32.078;34.818;2023-02-15T14:26:49;21.40;35.30
23618;DHT22;18207;32.078;34.818;2023-02-15T14:29:31;21.40;35.20
23618;DHT22;18207;32.078;34.818;2023-02-15T14:32:17;21.40;35.20
23618;DHT22;18207;32.078;34.818;2023-02-15T14:34:56;21.40;35.20
23618;DHT22;18207;32.078;34.818;2023-02-15T14:37:38;21.40;35.50
23618;DHT22;18207;32.078;34.818;2023-02-15T14:40:18;21.40;35.70
23618;DHT22;18207;32.078;34.818;2023-02-15T14:43:23;21.40;35.10
23618;DHT22;18207;32.078;34.818;2023-02-15T14:46:06;21.40;35.20
23618;DHT22;18207;32.078;34.818;2023-02-15T14:48:46;21.30;35.10
23618;DHT22;18207;32.078;34.818;2023-02-15T14:54:58;21.30;35.00
23618;DHT22;18207;32.078;34.818;2023-02-15T14:57:32;21.30;35.10
23618;DHT22;18207;32.078;34.818;2023-02-15T15:00:35;21.30;35.10
23618;DHT22;18207;32.078;34.818;2023-02-15T15:03:18;21.30;35.10
23618;DHT22;18207;32.078;34.818;2023-02-15T15:05:54;21.20;35.00
23618;DHT22;18207;32.078;34.818;2023-02-15T15:08:34;21.20;35.10
23618;DHT22;18207;32.078;34.818;2023-02-15T15:14:37;21.20;35.10
23618;DHT22;18207;32.078;34.818;2023-02-15T15:17:13;21.20;35.10
23618;DHT22;18207;32.078;34.818;2023-02-15T15:20:42;21.20;35.10
23618;DHT22;18207;32.078;34.818;2023-02-15T15:23:41;21.10;35.10
23618;DHT22;18207;32.078;34.818;2023-02-15T15:26:37;21.10;35.60
23618;DHT22;18207;32.078;34.818;2023-02-15T15:29:39;21.10;35.00
23618;DHT22;18207;32.078;34.818;2023-02-15T15:32:22;21.10;35.00
23618;DHT22;18207;32.078;34.818;2023-02-15T15:35:16;21.00;34.90
23618;DHT22;18207;32.078;34.818;2023-02-15T15:38:13;21.00;35.00
23618;DHT22;18207;32.078;34.818;2023-02-15T15:41:15;21.00;35.00
23618;DHT22;18207;32.078;34.818;2023-02-15T15:44:30;21.00;35.00
23618;DHT22;18207;32.078;34.818;2023-02-15T15:47:40;21.00;35.10
23618;DHT22;18207;32.078;34.818;2023-02-15T15:50:34;21.00;35.10
23618;DHT22;18207;32.078;34.818;2023-02-15T15:53:10;20.90;35.00
23618;DHT22;18207;32.078;34.818;2023-02-15T15:55:51;20.90;35.10
23618;DHT22;18207;32.078;34.818;2023-02-15T15:58:25;20.90;35.20
23618;DHT22;18207;32.078;34.818;2023-02-15T16:01:00;20.90;35.20
23618;DHT22;18207;32.078;34.818;2023-02-15T16:03:37;20.80;35.20
23618;DHT22;18207;32.078;34.818;2023-02-15T16:06:12;20.90;35.30
23618;DHT22;18207;32.078;34.818;2023-02-15T16:08:44;20.80;35.30
23618;DHT22;18207;32.078;34.818;2023-02-15T16:11:16;20.80;35.30
23618;DHT22;18207;32.078;34.818;2023-02-15T16:13:50;20.80;35.30
23618;DHT22;18207;32.078;34.818;2023-02-15T16:16:26;20.80;35.30
23618;DHT22;18207;32.078;34.818;2023-02-15T16:18:59;20.80;35.30
23618;DHT22;18207;32.078;34.818;2023-02-15T16:21:32;20.80;35.30
23618;DHT22;18207;32.078;34.818;2023-02-15T16:27:55;20.70;35.40
23618;DHT22;18207;32.078;34.818;2023-02-15T16:30:28;20.70;35.40
23618;DHT22;18207;32.078;34.818;2023-02-15T16:33:09;20.70;35.40
23618;DHT22;18207;32.078;34.818;2023-02-15T16:35:53;20.70;35.50
23618;DHT22;18207;32.078;34.818;2023-02-15T16:38:54;20.70;35.50
23618;DHT22;18207;32.078;34.818;2023-02-15T16:41:37;20.60;35.50
23618;DHT22;18207;32.078;34.818;2023-02-15T16:44:14;20.60;35.50
23618;DHT22;18207;32.078;34.818;2023-02-15T16:46:49;20.60;35.50
23618;DHT22;18207;32.078;34.818;2023-02-15T16:49:27;20.60;35.50
23618;DHT22;18207;32.078;34.818;2023-02-15T16:52:00;20.60;35.50